Time;durP1;ratioP1;P1;durP2;ratioP2;P2;SDS_P1;SDS_P2;PMS_P1;PMS_P2;Temp;Humidity;BMP_temperature;BMP_pressure;BME280_temperature;BME280_humidity;BME280_pressure;Samples;Min_cycle;Max_cycle;Signal;HPM_P1;HPM_P2
2023/12/22 00:00:09;;;;;;;21.98;14.23;;;;;;;-1.30;83.32;93278.94;5055649;28;20023;-75
2023/12/22 00:02:35;;;;;;;19.17;10.45;;;;;;;-1.36;83.64;93242.75;5086812;28;20028;-74
2023/12/22 00:05:00;;;;;;;15.15;10.43;;;;;;;-1.25;82.88;93259.09;5068017;28;20039;-75
2023/12/22 00:07:26;;;;;;;19.27;10.00;;;;;;;-1.21;83.31;93237.59;5087880;28;20579;-74
2023/12/22 00:09:51;;;;;;;20.73;9.98;;;;;;;-1.08;83.39;93241.03;5072189;28;20043;-74
2023/12/22 00:12:17;;;;;;;17.95;9.43;;;;;;;-1.00;83.23;93248.19;5086254;28;20509;-74
2023/12/22 00:14:42;;;;;;;15.65;8.77;;;;;;;-0.87;82.95;93235.47;5083610;28;20394;-74
2023/12/22 00:17:08;;;;;;;15.85;8.93;;;;;;;-0.82;81.76;93252.13;5093791;28;20511;-74
2023/12/22 00:19:33;;;;;;;16.10;9.45;;;;;;;-0.86;81.89;93258.34;5090463;28;20043;-74
2023/12/22 00:21:58;;;;;;;17.23;8.57;;;;;;;-0.77;81.52;93211.84;5067317;28;20063;-74
2023/12/22 00:24:24;;;;;;;14.75;8.32;;;;;;;-0.69;81.34;93232.56;5083736;28;20032;-74
2023/12/22 00:26:49;;;;;;;12.52;8.13;;;;;;;-0.73;81.74;93202.25;5090676;28;20056;-74
2023/12/22 00:29:15;;;;;;;11.90;8.10;;;;;;;-0.63;81.90;93228.00;5052501;28;20037;-74
2023/12/22 00:31:40;;;;;;;13.38;8.20;;;;;;;-0.65;82.23;93219.63;5075189;28;20032;-75
2023/12/22 00:34:06;;;;;;;15.20;9.25;;;;;;;-0.65;82.09;93224.72;5083563;28;20032;-74
2023/12/22 00:36:31;;;;;;;14.88;8.32;;;;;;;-0.69;82.51;93204.53;5086302;28;20043;-74
2023/12/22 00:38:56;;;;;;;15.88;9.02;;;;;;;-0.61;81.67;93216.78;5118755;27;20023;-74
2023/12/22 00:41:22;;;;;;;13.52;8.40;;;;;;;-0.53;81.55;93203.50;5088079;28;20043;-74
2023/12/22 00:43:47;;;;;;;13.80;8.27;;;;;;;-0.59;81.78;93194.53;5083109;28;20043;-74
2023/12/22 00:46:13;;;;;;;14.38;8.05;;;;;;;-0.65;81.50;93154.13;5087083;28;20032;-74
2023/12/22 00:48:38;;;;;;;13.35;7.93;;;;;;;-0.59;82.14;93174.13;5070249;28;20568;-75
2023/12/22 00:51:06;;;;;;;12.40;7.13;;;;;;;-0.47;81.60;93155.47;5068962;28;20040;-74
2023/12/22 00:53:32;;;;;;;16.17;7.78;;;;;;;-0.73;81.90;93131.66;5067296;28;20044;-74
2023/12/22 00:55:57;;;;;;;13.45;7.65;;;;;;;-0.59;82.17;93129.94;5070514;28;20043;-74
2023/12/22 00:58:22;;;;;;;21.48;12.90;;;;;;;-0.77;82.34;93165.13;5085961;28;20055;-74
2023/12/22 01:00:49;;;;;;;24.83;12.73;;;;;;;-0.78;82.10;93151.56;5092375;28;20040;-74
2023/12/22 01:03:14;;;;;;;19.90;11.40;;;;;;;-0.79;82.22;93159.31;5084823;28;20039;-74
2023/12/22 01:05:40;;;;;;;21.77;12.95;;;;;;;-0.79;83.11;93146.56;5082756;28;20055;-74
2023/12/22 01:08:05;;;;;;;22.50;13.43;;;;;;;-0.85;82.66;93154.63;5085306;28;20535;-75
2023/12/22 01:10:31;;;;;;;25.80;16.13;;;;;;;-0.72;82.90;93160.56;5089250;28;20032;-74
2023/12/22 01:12:56;;;;;;;23.83;14.10;;;;;;;-0.81;82.02;93105.03;5065924;28;20032;-75
2023/12/22 01:15:22;;;;;;;22.35;12.77;;;;;;;-0.87;82.40;93181.94;5048404;28;20032;-74
2023/12/22 01:17:48;;;;;;;25.67;15.07;;;;;;;-0.50;81.76;93181.19;5065279;28;20036;-74
2023/12/22 01:20:13;;;;;;;25.17;14.90;;;;;;;-0.58;82.10;93190.25;5083823;28;20037;-75
2023/12/22 01:22:39;;;;;;;23.13;14.57;;;;;;;-0.72;81.78;93174.13;5102377;28;20036;-75
2023/12/22 01:25:05;;;;;;;22.70;14.73;;;;;;;-0.84;83.22;93148.59;5085692;28;20847;-74
2023/12/22 01:27:30;;;;;;;19.85;11.90;;;;;;;-1.06;83.61;93180.56;5087881;28;20020;-75
2023/12/22 01:29:56;;;;;;;28.13;15.27;;;;;;;-0.83;83.44;93168.91;5071077;28;20468;-74
2023/12/22 01:32:21;;;;;;;20.63;11.75;;;;;;;-0.75;82.94;93186.25;5087366;28;20023;-75
2023/12/22 01:34:47;;;;;;;18.58;11.38;;;;;;;-0.71;83.48;93152.78;5086383;28;20032;-75
2023/12/22 01:37:12;;;;;;;17.40;10.00;;;;;;;-0.64;83.20;93153.22;5121398;28;20035;-75
2023/12/22 01:39:38;;;;;;;15.63;9.93;;;;;;;-0.75;83.67;93173.50;5092723;28;20031;-75
2023/12/22 01:42:03;;;;;;;15.07;9.43;;;;;;;-0.52;83.10;93164.34;5057564;28;20040;-75
2023/12/22 01:44:29;;;;;;;14.32;8.45;;;;;;;-0.54;83.38;93150.88;5093478;28;20027;-75
2023/12/22 01:46:54;;;;;;;13.50;8.32;;;;;;;-0.64;84.02;93158.31;5093184;28;20471;-75
2023/12/22 01:49:20;;;;;;;14.18;8.35;;;;;;;-0.55;83.05;93110.97;5093995;28;20024;-75
2023/12/22 01:51:45;;;;;;;13.73;8.48;;;;;;;-0.72;83.50;93104.44;5095308;28;20027;-75
2023/12/22 01:54:11;;;;;;;21.52;12.18;;;;;;;-0.41;83.15;93122.81;5113588;28;20032;-75
2023/12/22 01:56:36;;;;;;;21.27;11.18;;;;;;;-0.50;83.15;93132.72;5110704;28;20054;-75
2023/12/22 01:59:02;;;;;;;22.13;11.60;;;;;;;-0.38;82.70;93127.72;5093109;28;20058;-75
2023/12/22 02:01:28;;;;;;;16.10;9.18;;;;;;;-0.50;83.31;93101.28;5092117;28;20020;-75
2023/12/22 02:03:53;;;;;;;18.70;8.75;;;;;;;-0.63;82.94;93141.28;5093146;28;20059;-75
2023/12/22 02:06:19;;;;;;;14.38;9.15;;;;;;;-0.41;82.78;93079.44;5092899;28;20028;-75
2023/12/22 02:08:47;;;;;;;18.17;10.18;;;;;;;-0.53;83.06;93137.19;5075999;28;20044;-75
2023/12/22 02:11:14;;;;;;;22.30;12.27;;;;;;;-0.31;82.93;93098.28;5125373;27;20036;-74
2023/12/22 02:13:39;;;;;;;17.80;10.40;;;;;;;-0.52;83.38;93132.00;5094141;28;20127;-75
2023/12/22 02:16:12;;;;;;;21.63;13.38;;;;;;;-0.20;81.77;93125.63;5092695;28;20039;-74
2023/12/22 02:18:38;;;;;;;20.38;12.15;;;;;;;-0.41;82.59;93117.72;5091299;28;20200;-75
2023/12/22 02:21:04;;;;;;;22.45;10.20;;;;;;;-0.36;82.63;93097.78;5109443;28;20043;-75
2023/12/22 02:23:29;;;;;;;15.10;9.80;;;;;;;-0.46;83.11;93128.22;5092657;28;20029;-75
2023/12/22 02:26:01;;;;;;;14.65;8.55;;;;;;;-0.38;83.47;93113.22;5092806;28;20032;-75
2023/12/22 02:28:27;;;;;;;19.33;11.10;;;;;;;-0.23;83.29;93136.88;5083712;28;20027;-75
2023/12/22 02:30:52;;;;;;;19.55;11.52;;;;;;;-0.24;83.13;93109.72;5112896;28;20031;-75
2023/12/22 02:33:17;;;;;;;21.35;12.68;;;;;;;-0.55;84.10;93131.38;5113000;28;20327;-75
2023/12/22 02:35:43;;;;;;;19.55;12.18;;;;;;;-0.39;84.38;93113.31;5095762;28;20040;-74
2023/12/22 02:38:08;;;;;;;18.77;13.18;;;;;;;-0.54;84.80;93120.25;5075920;28;20021;-75
2023/12/22 02:40:34;;;;;;;17.55;12.38;;;;;;;-0.21;84.68;93121.47;5092259;28;20032;-75
2023/12/22 02:43:00;;;;;;;19.75;12.65;;;;;;;-0.25;83.99;93091.06;5092112;28;20036;-75
2023/12/22 02:45:26;;;;;;;21.25;12.25;;;;;;;-0.35;83.98;93094.31;5073859;28;20032;-75
2023/12/22 02:47:51;;;;;;;19.27;12.73;;;;;;;-0.10;83.73;93080.72;5075281;28;20024;-75
2023/12/22 02:50:17;;;;;;;20.92;13.48;;;;;;;0.02;83.65;93089.25;5097764;28;20043;-75
2023/12/22 02:52:42;;;;;;;18.65;12.25;;;;;;;0.16;82.92;93096.75;5111683;28;20062;-75
2023/12/22 02:55:08;;;;;;;22.08;14.73;;;;;;;-0.13;83.19;93103.91;5097026;28;20127;-75
2023/12/22 02:57:33;;;;;;;23.70;15.52;;;;;;;0.11;83.39;93091.16;5074859;28;20528;-75
2023/12/22 02:59:58;;;;;;;21.48;15.52;;;;;;;0.08;82.93;93068.38;5106902;28;20043;-75
2023/12/22 03:02:24;;;;;;;21.83;15.20;;;;;;;0.09;82.21;93070.03;5078202;28;20028;-75
2023/12/22 03:04:49;;;;;;;21.67;14.55;;;;;;;0.05;83.28;93087.28;5097793;28;20028;-75
2023/12/22 03:07:15;;;;;;;19.23;13.23;;;;;;;0.10;82.43;93062.25;5125724;27;20024;-75
2023/12/22 03:09:41;;;;;;;22.90;14.90;;;;;;;0.32;82.61;93092.22;5074996;28;20036;-75
2023/12/22 03:12:07;;;;;;;21.70;14.85;;;;;;;0.27;82.67;93063.63;5091595;28;20032;-75
2023/12/22 03:14:33;;;;;;;23.45;15.32;;;;;;;0.01;82.73;93052.69;5072877;28;20035;-75
2023/12/22 03:17:02;;;;;;;23.88;15.68;;;;;;;-0.14;83.02;93063.97;5071287;28;20024;-75
2023/12/22 03:19:27;;;;;;;30.88;18.77;;;;;;;-0.30;84.28;93082.06;5072885;28;20029;-75
2023/12/22 03:21:53;;;;;;;39.78;25.10;;;;;;;-0.54;84.59;93064.94;5058501;28;20035;-75
2023/12/22 03:24:19;;;;;;;30.63;19.13;;;;;;;-0.16;83.19;93089.59;5091296;28;20036;-75
2023/12/22 03:26:45;;;;;;;24.40;16.02;;;;;;;-0.34;83.45;93062.78;5104518;28;20035;-75
2023/12/22 03:29:10;;;;;;;19.00;12.50;;;;;;;-0.24;82.35;93084.19;5083906;28;20040;-75
2023/12/22 03:31:36;;;;;;;30.73;16.08;;;;;;;-0.30;83.45;93079.53;5079835;28;20097;-75
2023/12/22 03:34:01;;;;;;;27.90;15.48;;;;;;;-0.17;83.11;93052.22;5090956;28;20035;-75
2023/12/22 03:36:27;;;;;;;29.48;16.30;;;;;;;-0.34;83.10;93073.78;5092114;28;20459;-75
2023/12/22 03:38:52;;;;;;;24.13;14.85;;;;;;;-0.27;83.54;93092.06;5090691;28;20028;-75
2023/12/22 03:41:18;;;;;;;26.55;15.38;;;;;;;-0.41;83.10;93053.94;5079082;28;20394;-75
2023/12/22 03:43:43;;;;;;;22.40;13.13;;;;;;;-0.14;82.61;93105.63;5085477;28;20510;-75
2023/12/22 03:46:08;;;;;;;18.27;10.52;;;;;;;-0.37;82.45;93042.56;5087143;28;20074;-76
2023/12/22 03:48:34;;;;;;;21.63;12.27;;;;;;;-0.54;83.26;93061.59;5084723;28;20024;-76
2023/12/22 03:50:59;;;;;;;22.23;12.63;;;;;;;-0.55;84.51;93101.59;5086478;28;20084;-76
2023/12/22 03:53:25;;;;;;;20.27;11.63;;;;;;;-0.54;82.76;93036.88;5070083;28;20078;-76
2023/12/22 03:55:50;;;;;;;19.33;11.63;;;;;;;-0.52;83.10;93070.75;5051716;28;20028;-76
2023/12/22 03:58:16;;;;;;;18.27;11.00;;;;;;;-0.35;83.55;93073.91;5085627;28;20052;-76
2023/12/22 04:00:41;;;;;;;18.88;12.65;;;;;;;-0.59;83.33;93046.56;5069560;28;20043;-76
2023/12/22 04:03:07;;;;;;;17.80;12.27;;;;;;;-0.29;82.50;93041.13;5053857;28;20032;-76
2023/12/22 04:05:32;;;;;;;19.63;12.07;;;;;;;-0.19;82.69;93055.81;5066863;28;20033;-76
2023/12/22 04:07:58;;;;;;;20.17;11.93;;;;;;;-0.05;82.43;93058.22;5086215;28;20028;-76
2023/12/22 04:10:23;;;;;;;21.02;13.68;;;;;;;0.07;82.93;93082.09;5086157;28;20460;-76
2023/12/22 04:12:48;;;;;;;21.20;12.95;;;;;;;0.12;82.24;93059.59;5069802;28;20047;-76
2023/12/22 04:15:14;;;;;;;22.83;12.77;;;;;;;0.02;82.21;93076.47;5069348;28;20089;-76
2023/12/22 04:17:39;;;;;;;55.30;35.97;;;;;;;-0.03;82.64;93046.16;5109131;27;20054;-76
2023/12/22 04:20:08;;;;;;;27.95;18.20;;;;;;;-0.15;82.54;93078.47;5099761;28;20422;-76
2023/12/22 04:22:33;;;;;;;24.05;14.60;;;;;;;-0.06;82.25;93024.22;5082342;28;20024;-76
2023/12/22 04:24:59;;;;;;;26.95;16.98;;;;;;;0.03;82.94;93081.50;5086517;28;20505;-74
2023/12/22 04:27:24;;;;;;;27.52;18.73;;;;;;;0.09;83.01;93064.94;5045773;28;20032;-75
2023/12/22 04:29:50;;;;;;;28.10;17.40;;;;;;;0.18;83.56;93079.59;5087876;28;20054;-74
2023/12/22 04:32:15;;;;;;;16.67;10.60;;;;;;;0.34;83.08;93064.84;5086733;28;20040;-74
2023/12/22 04:34:41;;;;;;;20.98;12.48;;;;;;;0.35;83.01;93045.22;5086261;28;20036;-74
2023/12/22 04:37:06;;;;;;;18.65;11.68;;;;;;;0.33;82.86;93068.28;5051230;28;20121;-74
2023/12/22 04:39:31;;;;;;;16.98;10.70;;;;;;;0.37;82.88;93056.94;5084526;28;20040;-75
2023/12/22 04:42:00;;;;;;;17.63;11.27;;;;;;;0.25;83.66;93059.53;5087461;28;20039;-73
2023/12/22 04:44:25;;;;;;;17.50;11.02;;;;;;;0.16;84.35;93061.00;5087174;28;20427;-73
2023/12/22 04:46:51;;;;;;;21.75;10.50;;;;;;;0.36;83.99;93052.78;5085728;28;20031;-73
2023/12/22 04:49:16;;;;;;;17.40;10.27;;;;;;;0.54;83.93;93047.28;5084486;28;20032;-73
2023/12/22 04:51:42;;;;;;;17.08;10.55;;;;;;;0.51;83.61;93039.81;5119635;27;20042;-73
2023/12/22 04:54:07;;;;;;;17.50;10.48;;;;;;;0.49;84.21;93046.78;5052633;28;20477;-73
2023/12/22 04:56:33;;;;;;;16.73;9.45;;;;;;;0.22;84.31;93009.50;5087366;28;20056;-73
2023/12/22 04:58:58;;;;;;;15.98;10.73;;;;;;;0.62;83.81;93068.78;5086625;28;20485;-73
2023/12/22 05:01:24;;;;;;;27.63;14.55;;;;;;;0.61;83.67;93026.28;5088498;28;20051;-73
2023/12/22 05:03:49;;;;;;;21.13;12.05;;;;;;;0.23;84.47;93046.91;5068323;28;20028;-73
2023/12/22 05:06:14;;;;;;;23.70;13.88;;;;;;;0.57;83.78;93032.53;5085640;28;20028;-73
2023/12/22 05:08:40;;;;;;;23.58;14.70;;;;;;;0.28;84.58;93037.19;5086075;28;20417;-73
2023/12/22 05:11:05;;;;;;;55.78;35.22;;;;;;;0.65;83.99;93034.53;5085202;28;20060;-73
2023/12/22 05:13:31;;;;;;;25.25;15.88;;;;;;;0.29;84.32;93023.47;5088670;28;20409;-73
2023/12/22 05:15:56;;;;;;;27.77;19.17;;;;;;;0.20;84.86;92996.03;5087424;28;20486;-73
2023/12/22 05:18:22;;;;;;;55.00;32.58;;;;;;;0.21;85.17;93018.09;5072647;28;20401;-73
2023/12/22 05:20:47;;;;;;;39.97;26.02;;;;;;;0.42;85.10;93015.75;5087824;28;20563;-73
2023/12/22 05:23:12;;;;;;;35.65;24.02;;;;;;;0.56;85.39;93033.47;5071380;28;20455;-73
2023/12/22 05:25:38;;;;;;;28.40;18.65;;;;;;;0.47;84.27;93011.09;5090863;28;20459;-73
2023/12/22 05:28:06;;;;;;;25.83;16.63;;;;;;;0.44;85.00;93037.69;5091845;28;20421;-73
2023/12/22 05:30:32;;;;;;;25.20;16.20;;;;;;;0.60;85.18;93042.53;5088348;28;20070;-73
2023/12/22 05:32:57;;;;;;;21.60;12.85;;;;;;;0.66;84.62;93041.25;5077348;28;20032;-73
2023/12/22 05:35:23;;;;;;;22.70;13.25;;;;;;;0.78;84.41;93042.94;5090008;28;20490;-73
2023/12/22 05:37:48;;;;;;;17.80;11.20;;;;;;;0.79;83.86;93044.56;5110530;27;20039;-73
2023/12/22 05:40:32;;;;;;;18.27;10.65;;;;;;;0.64;84.44;93050.78;5090525;28;20059;-73
2023/12/22 05:42:58;;;;;;;12.75;9.13;;;;;;;0.89;84.19;93049.81;5122963;27;20028;-73
2023/12/22 05:45:24;;;;;;;17.23;9.75;;;;;;;0.82;83.73;93038.41;5072804;28;20074;-73
2023/12/22 05:47:50;;;;;;;15.07;9.43;;;;;;;0.84;84.26;93047.59;5073369;28;20028;-73
2023/12/22 05:50:16;;;;;;;16.33;10.25;;;;;;;0.94;83.42;93036.69;5088068;28;20039;-73
2023/12/22 05:52:42;;;;;;;17.73;10.55;;;;;;;0.73;83.36;93029.69;5071871;28;20028;-73
2023/12/22 05:55:08;;;;;;;25.08;17.33;;;;;;;0.98;83.28;93048.34;5089358;28;20093;-74
2023/12/22 05:57:33;;;;;;;63.80;32.85;;;;;;;0.71;84.26;93038.38;5093375;28;20202;-74
2023/12/22 05:59:59;;;;;;;21.73;13.27;;;;;;;0.87;84.14;93026.91;5088348;28;20482;-74
2023/12/22 06:02:25;;;;;;;23.48;14.63;;;;;;;0.65;83.82;93026.88;5079718;28;20473;-74
2023/12/22 06:04:50;;;;;;;24.80;14.57;;;;;;;0.83;84.52;93025.50;5089328;28;20056;-73
2023/12/22 06:07:16;;;;;;;86.18;36.25;;;;;;;0.50;84.74;93041.53;5090502;28;20074;-73
2023/12/22 06:09:41;;;;;;;81.10;36.30;;;;;;;0.56;85.23;93050.53;5053381;28;20031;-73
2023/12/22 06:12:07;;;;;;;76.90;38.10;;;;;;;0.76;84.52;93044.78;5071733;28;20077;-73
2023/12/22 06:14:34;;;;;;;27.17;16.35;;;;;;;0.75;84.92;93050.00;5073483;28;20028;-73
2023/12/22 06:17:00;;;;;;;40.90;20.85;;;;;;;0.80;84.78;93055.59;5122819;27;20112;-73
2023/12/22 06:19:28;;;;;;;34.65;19.85;;;;;;;0.86;84.78;93055.97;5087510;28;20623;-73
2023/12/22 06:21:54;;;;;;;31.38;18.63;;;;;;;0.84;84.78;93055.28;5089036;28;20122;-73
2023/12/22 06:24:19;;;;;;;28.25;17.45;;;;;;;0.78;84.83;93055.72;5088964;28;20130;-73
2023/12/22 06:26:44;;;;;;;27.05;15.95;;;;;;;0.88;84.98;93055.84;5105591;28;20032;-73
2023/12/22 06:29:10;;;;;;;24.73;15.23;;;;;;;1.07;83.97;93053.56;5088168;28;20039;-73
2023/12/22 06:31:35;;;;;;;26.88;16.60;;;;;;;1.13;83.52;93052.31;5106566;28;20371;-73
2023/12/22 06:34:02;;;;;;;22.05;14.05;;;;;;;1.06;83.51;93046.03;5072083;28;20036;-73
2023/12/22 06:36:28;;;;;;;19.48;12.65;;;;;;;0.90;84.15;93061.69;5091370;28;20035;-73
2023/12/22 06:38:54;;;;;;;22.95;13.57;;;;;;;1.14;83.86;93056.50;5090617;28;20505;-73
2023/12/22 06:41:30;;;;;;;26.67;15.95;;;;;;;0.97;84.10;93057.72;5086844;28;20036;-73
2023/12/22 06:43:56;;;;;;;28.13;16.08;;;;;;;0.98;84.30;93056.00;5107716;27;20074;-73
2023/12/22 06:46:22;;;;;;;22.95;14.25;;;;;;;1.10;83.72;93049.97;5089504;28;20036;-74
2023/12/22 06:48:48;;;;;;;19.17;11.07;;;;;;;1.31;83.81;93068.88;5102444;28;20036;-73
2023/12/22 06:51:18;;;;;;;18.35;13.30;;;;;;;1.16;83.79;93062.31;5070239;28;20036;-73
2023/12/22 06:53:43;;;;;;;88.40;33.30;;;;;;;1.26;83.43;93059.91;5088720;28;20486;-73
2023/12/22 06:56:16;;;;;;;47.30;23.60;;;;;;;1.45;82.78;93067.00;5089229;28;20047;-73
2023/12/22 06:58:42;;;;;;;30.50;15.43;;;;;;;1.56;82.80;93074.69;5087568;28;20102;-73
2023/12/22 07:01:07;;;;;;;29.90;15.77;;;;;;;1.43;82.48;93064.56;5088356;28;21898;-73
2023/12/22 07:03:32;;;;;;;18.08;11.32;;;;;;;1.33;83.24;93064.44;5088421;28;20039;-73
2023/12/22 07:05:58;;;;;;;32.33;18.08;;;;;;;1.37;83.12;93077.00;5093047;28;20410;-73
2023/12/22 07:08:23;;;;;;;32.05;18.25;;;;;;;1.43;83.01;93081.66;5087856;28;20028;-73
2023/12/22 07:10:49;;;;;;;36.05;19.88;;;;;;;1.38;83.66;93076.88;5089935;28;20032;-75
2023/12/22 07:13:14;;;;;;;29.55;17.08;;;;;;;1.47;83.20;93071.06;5086655;28;20513;-73
2023/12/22 07:15:40;;;;;;;34.08;19.35;;;;;;;1.23;83.80;93071.19;5092168;28;20538;-73
2023/12/22 07:18:05;;;;;;;20.92;13.07;;;;;;;1.18;84.87;93070.69;5089330;28;20036;-73
2023/12/22 07:20:31;;;;;;;15.63;10.25;;;;;;;1.36;83.67;93063.38;5087577;28;20466;-73
2023/12/22 07:22:56;;;;;;;30.98;18.67;;;;;;;1.48;83.65;93087.25;5070141;28;20024;-73
2023/12/22 07:25:22;;;;;;;38.75;21.15;;;;;;;1.39;84.22;93085.38;5075867;28;20036;-73
2023/12/22 07:27:47;;;;;;;23.08;13.98;;;;;;;1.46;84.03;93078.88;5088700;28;20639;-73
2023/12/22 07:30:15;;;;;;;19.63;11.43;;;;;;;1.46;84.13;93066.88;5117998;27;20036;-73
2023/12/22 07:32:43;;;;;;;17.50;10.98;;;;;;;1.52;84.25;93084.34;5085541;28;20028;-73
2023/12/22 07:35:09;;;;;;;15.48;9.32;;;;;;;1.20;84.55;93065.44;5090511;28;20523;-73
2023/12/22 07:37:35;;;;;;;13.55;8.48;;;;;;;1.52;84.27;93083.53;5068172;28;20028;-74
2023/12/22 07:40:00;;;;;;;12.77;8.55;;;;;;;1.58;84.18;93074.56;5100910;28;20051;-73
2023/12/22 07:42:26;;;;;;;16.20;11.70;;;;;;;1.40;84.72;93090.38;5085745;28;20667;-73
2023/12/22 07:44:51;;;;;;;14.63;10.23;;;;;;;1.53;84.86;93080.88;5092790;28;20466;-73
2023/12/22 07:47:17;;;;;;;18.38;11.43;;;;;;;1.44;85.25;93090.97;5083982;28;20520;-73
2023/12/22 07:49:42;;;;;;;14.98;10.43;;;;;;;1.63;85.76;93096.34;5092394;28;20031;-73
2023/12/22 07:52:07;;;;;;;18.80;12.75;;;;;;;1.51;85.11;93087.03;5091513;28;20915;-73
2023/12/22 07:54:33;;;;;;;15.43;9.43;;;;;;;1.68;84.90;93096.00;5071150;28;20470;-72
2023/12/22 07:56:58;;;;;;;25.23;16.38;;;;;;;1.83;85.17;93106.81;5092842;28;20056;-72
2023/12/22 07:59:24;;;;;;;54.17;33.40;;;;;;;1.71;85.04;93117.06;5089724;28;20046;-72
2023/12/22 08:01:50;;;;;;;64.95;35.40;;;;;;;1.70;85.20;93107.75;5085835;28;20035;-72
2023/12/22 08:04:15;;;;;;;82.20;44.58;;;;;;;1.65;85.65;93099.59;5089811;28;20409;-73
2023/12/22 08:06:40;;;;;;;47.78;27.48;;;;;;;1.58;85.62;93083.06;5086399;28;20413;-72
2023/12/22 08:09:06;;;;;;;43.40;27.00;;;;;;;1.60;85.90;93117.03;5085821;28;20591;-72
2023/12/22 08:11:31;;;;;;;21.70;14.50;;;;;;;1.58;84.71;93084.81;5083458;28;20048;-72
2023/12/22 08:13:57;;;;;;;40.35;24.67;;;;;;;1.94;84.48;93129.88;5080997;28;20074;-71
2023/12/22 08:16:22;;;;;;;23.65;15.30;;;;;;;2.01;83.97;93115.69;5119606;27;20035;-71
2023/12/22 08:18:48;;;;;;;33.58;22.38;;;;;;;2.10;84.30;93129.53;5088169;28;20429;-70
2023/12/22 08:21:14;;;;;;;24.17;14.93;;;;;;;1.97;84.34;93115.06;5091150;28;20497;-71
2023/12/22 08:23:39;;;;;;;35.47;23.15;;;;;;;2.05;84.50;93134.97;5086925;28;20468;-72
2023/12/22 08:26:04;;;;;;;29.00;18.92;;;;;;;2.15;84.08;93143.59;5120560;27;20143;-72
2023/12/22 08:28:30;;;;;;;39.72;23.25;;;;;;;2.11;83.53;93139.63;5076495;28;20126;-72
2023/12/22 08:30:55;;;;;;;36.92;26.20;;;;;;;2.00;83.91;93149.88;5085208;28;20039;-72
2023/12/22 08:33:21;;;;;;;56.25;37.05;;;;;;;1.99;84.93;93138.84;5080545;28;20525;-70
2023/12/22 08:35:46;;;;;;;58.00;37.47;;;;;;;1.69;85.53;93147.06;5078573;28;20422;-70
2023/12/22 08:38:13;;;;;;;40.08;26.48;;;;;;;1.92;85.85;93147.94;5089183;28;20074;-70
2023/12/22 08:40:38;;;;;;;33.72;22.42;;;;;;;2.01;84.91;93146.41;5088541;28;20032;-70
2023/12/22 08:43:06;;;;;;;52.38;30.92;;;;;;;2.00;84.51;93145.56;5100796;28;20024;-70
2023/12/22 08:45:31;;;;;;;85.50;42.55;;;;;;;1.77;85.04;93115.78;5088633;28;20062;-71
2023/12/22 08:47:57;;;;;;;54.10;33.65;;;;;;;2.10;85.35;93150.81;5071634;28;20016;-72
2023/12/22 08:50:22;;;;;;;43.92;26.75;;;;;;;2.10;84.54;93150.00;5089467;28;20057;-72
2023/12/22 08:52:48;;;;;;;36.70;24.55;;;;;;;2.06;84.36;93149.41;5089464;28;20028;-72
2023/12/22 08:55:13;;;;;;;43.75;25.67;;;;;;;1.97;84.75;93137.31;5072869;28;20039;-71
2023/12/22 08:57:39;;;;;;;41.08;25.38;;;;;;;2.01;85.09;93141.28;5090812;28;20047;-71
2023/12/22 09:00:05;;;;;;;33.83;21.48;;;;;;;2.19;84.51;93139.88;5089326;28;20132;-72
2023/12/22 09:02:31;;;;;;;36.80;23.65;;;;;;;2.23;84.14;93145.59;5091011;28;20393;-72
2023/12/22 09:04:56;;;;;;;29.83;19.48;;;;;;;2.23;84.31;93148.97;5090730;28;20024;-72
2023/12/22 09:07:22;;;;;;;31.20;20.65;;;;;;;2.32;84.28;93154.31;5072363;28;20054;-72
2023/12/22 09:09:48;;;;;;;31.98;19.52;;;;;;;2.30;84.38;93140.78;5082886;28;20036;-71
2023/12/22 09:12:13;;;;;;;29.23;19.88;;;;;;;2.34;84.58;93162.69;5072633;28;20029;-69
2023/12/22 09:14:39;;;;;;;25.10;16.20;;;;;;;2.38;84.20;93164.09;5090908;28;20040;-70
2023/12/22 09:17:05;;;;;;;25.30;16.75;;;;;;;2.26;84.46;93165.00;5071712;28;20029;-70
2023/12/22 09:19:34;;;;;;;22.17;15.15;;;;;;;2.36;84.21;93163.38;5087419;28;20445;-69
2023/12/22 09:21:59;;;;;;;20.20;13.45;;;;;;;2.49;84.25;93176.09;5104127;28;20039;-69
2023/12/22 09:24:24;;;;;;;18.88;13.18;;;;;;;2.56;83.80;93180.59;5069351;28;20107;-69
2023/12/22 09:26:51;;;;;;;23.15;14.35;;;;;;;2.48;83.74;93185.53;5083924;28;20353;-70
2023/12/22 09:29:16;;;;;;;17.23;11.82;;;;;;;2.65;83.53;93182.47;5099332;28;20485;-70
2023/12/22 09:31:42;;;;;;;18.48;12.65;;;;;;;2.73;83.16;93181.03;5087556;28;20255;-70
2023/12/22 09:34:07;;;;;;;17.30;11.70;;;;;;;2.76;83.19;93180.78;5070688;28;20020;-70
2023/12/22 09:36:33;;;;;;;26.33;18.75;;;;;;;2.73;83.43;93175.91;5090167;28;20494;-70
2023/12/22 09:38:58;;;;;;;23.55;15.95;;;;;;;2.75;83.03;93172.28;5089260;28;20043;-69
2023/12/22 09:41:24;;;;;;;28.33;19.65;;;;;;;2.77;83.63;93167.06;5122483;28;20028;-70
2023/12/22 09:43:50;;;;;;;21.92;15.40;;;;;;;2.88;82.94;93174.72;5088191;28;20042;-70
2023/12/22 09:46:16;;;;;;;30.92;20.05;;;;;;;2.65;83.62;93151.69;5087056;28;20588;-70
2023/12/22 09:48:41;;;;;;;32.25;21.25;;;;;;;2.81;83.81;93160.72;5087077;28;20024;-70
2023/12/22 09:51:07;;;;;;;34.20;21.00;;;;;;;2.82;82.93;93136.72;5103918;28;20516;-70
2023/12/22 09:53:32;;;;;;;33.47;22.65;;;;;;;2.86;83.08;93138.91;5104234;28;20032;-69
2023/12/22 09:55:58;;;;;;;32.38;22.25;;;;;;;2.81;84.08;93142.78;5087202;28;20043;-69
2023/12/22 09:58:23;;;;;;;33.63;21.45;;;;;;;2.77;84.27;93147.34;5089041;28;20047;-69
2023/12/22 10:00:49;;;;;;;27.42;17.77;;;;;;;2.90;84.36;93144.63;5089278;28;20031;-70
2023/12/22 10:03:14;;;;;;;24.05;16.35;;;;;;;2.85;84.69;93145.00;5108615;28;20032;-69
2023/12/22 10:05:40;;;;;;;23.80;16.27;;;;;;;2.77;85.42;93138.84;5093000;28;20050;-69
2023/12/22 10:08:05;;;;;;;23.00;14.52;;;;;;;2.96;85.63;93135.63;5109792;28;20489;-69
2023/12/22 10:10:31;;;;;;;23.17;16.63;;;;;;;2.91;85.50;93128.31;5109757;28;20059;-70
2023/12/22 10:12:56;;;;;;;24.42;15.00;;;;;;;3.11;85.21;93132.63;5109737;28;20521;-69
2023/12/22 10:15:23;;;;;;;24.23;15.82;;;;;;;3.01;85.25;93108.69;5109807;28;20092;-69
2023/12/22 10:17:53;;;;;;;20.92;15.02;;;;;;;2.81;85.41;93094.06;5092708;28;20034;-69
2023/12/22 10:20:18;;;;;;;18.75;14.15;;;;;;;3.03;86.12;93119.63;5109534;28;20398;-69
2023/12/22 10:22:43;;;;;;;19.52;13.68;;;;;;;3.06;86.35;93113.41;5092481;28;20049;-69
2023/12/22 10:25:09;;;;;;;21.52;15.38;;;;;;;2.86;86.44;93086.81;5092592;28;20043;-69
2023/12/22 10:27:37;;;;;;;23.10;15.95;;;;;;;3.10;86.79;93099.44;5092528;28;20085;-69
2023/12/22 10:30:04;;;;;;;33.47;23.90;;;;;;;3.01;86.88;93097.59;5092564;28;20572;-70
2023/12/22 10:32:29;;;;;;;49.95;31.60;;;;;;;3.00;87.97;93089.06;5093906;28;20042;-70
2023/12/22 10:34:56;;;;;;;38.97;26.15;;;;;;;2.94;88.75;93081.06;5126703;27;20032;-69
2023/12/22 10:37:23;;;;;;;49.63;31.67;;;;;;;2.55;89.19;93071.31;5109149;28;20039;-69
2023/12/22 10:39:52;;;;;;;51.55;35.20;;;;;;;2.58;89.79;93078.75;5109172;28;20504;-69
2023/12/22 10:42:17;;;;;;;46.85;31.02;;;;;;;2.77;89.82;93082.44;5108748;28;20501;-69
2023/12/22 10:44:43;;;;;;;47.22;30.48;;;;;;;3.09;88.33;93087.50;5109449;28;20024;-69
2023/12/22 10:47:08;;;;;;;38.35;26.15;;;;;;;3.30;87.28;93090.91;5092148;28;20035;-69
2023/12/22 10:49:34;;;;;;;40.10;28.02;;;;;;;3.35;86.78;93085.41;5093675;28;20032;-69
2023/12/22 10:51:59;;;;;;;41.47;28.40;;;;;;;3.47;86.42;93068.97;5092000;28;20032;-69
2023/12/22 10:54:24;;;;;;;40.42;27.42;;;;;;;3.32;86.63;93068.50;5109264;28;20028;-69
2023/12/22 10:56:50;;;;;;;37.00;25.00;;;;;;;3.53;86.60;93054.81;5108851;28;20055;-70
2023/12/22 10:59:19;;;;;;;33.28;23.58;;;;;;;3.71;85.84;93043.03;5091867;28;20043;-70
2023/12/22 11:01:44;;;;;;;39.55;27.00;;;;;;;3.49;86.26;93028.59;5074945;28;20052;-70
2023/12/22 11:04:13;;;;;;;32.75;22.70;;;;;;;3.80;85.57;93033.72;5108915;28;20051;-70
2023/12/22 11:06:39;;;;;;;30.10;21.70;;;;;;;3.90;85.21;93024.31;5108446;28;20098;-70
2023/12/22 11:09:10;;;;;;;32.92;22.50;;;;;;;3.93;85.38;93030.94;5108790;28;20500;-70
2023/12/22 11:11:38;;;;;;;29.08;21.40;;;;;;;4.15;85.28;93020.44;5108290;28;20040;-70
2023/12/22 11:14:04;;;;;;;31.23;22.52;;;;;;;4.29;85.25;93021.00;5125169;27;20512;-69
2023/12/22 11:16:30;;;;;;;34.85;24.73;;;;;;;4.29;85.23;93016.69;5091612;28;20446;-70